Maquon, IL (61458)

5:21 AM CDT on May 04, 2015 (GMT -0500)
Elmwood, IL | | Change Station
CLOSE
Current Station
Personal Weather Station
Location: Elmwood, IL
Elevation: 643 ft
Nearby Weather Stations

Elev 643 ft 40.78 °N, 89.97 °W | Updated 12 minutes ago

Thunderstorm
Thunderstorm
60.0 °F
Feels Like 60.0 °F
N
0.0
Wind Variable Wind from NE
Gusts 5.0 mph

Today
High -- | Low -- °F
--% Chance of Precip.
Yesterday
High -- | Low -- °F
Precip. -- in
5:55 AM 7:59 PM
Full, 100% visible
Pressure 29.98 in
Visibility 10.0 miles
Clouds Scattered Clouds 5000 ft
Overcast 9500 ft
Dew Point 58 °F
Humidity 92%
Rainfall 0.51 in
Snow Depth Not available.
UV 0 out of 12
Pollen 9.30 out of 12
Air Quality Not available.
Flu Activity Local Activity
METAR KGBG 040955Z AUTO 09006KT 10SM VCTS SCT050 OVC095 15/14 A2998 RMK AO2 LTG DSNT E THRU SW P0007 T01500138

More Conditions Fewer Conditions

Pressure 29.98 in
Visibility 10.0 miles
Clouds Scattered Clouds 5000 ft
Overcast 9500 ft
Dew Point 58 °F
Humidity 92%
Rainfall 0.51 in
Snow Depth Not available.
UV 0 out of 12
Pollen 9.30 out of 12
Air Quality Not available.
Flu Activity Local Activity
METAR KGBG 040955Z AUTO 09006KT 10SM VCTS SCT050 OVC095 15/14 A2998 RMK AO2 LTG DSNT E THRU SW P0007 T01500138

More Conditions Fewer Conditions

Nepal has a long way to go to dig out and rebuild from a devastating earthquake. We have teamed up with several charities and organizations to make contributing to the relief effort as easy as possible.
How you can help: Portlight Strategies | Red Cross

10-Day Weather Forecast

Almanac

Astronomy

May. 04, 2015 Rise Set
Actual Time
Civil Twilight
Nautical Twilight
Astronomical Twilight
Moon
Length of Visible Light
Length of Day
Tomorrow will be .
, % of the Moon is Illuminated

Today's Extremes

State Highs State Lows

Community

WunderPhotos

Upload Photos

1,818,554 photos uploaded!

WunderBlogs® & News

Nearby

Air Quality

  Air Quality AQ Index Pollutant
Not available.

Snow Depth

Station Depth Elevation

Earthquake Activity

City Distance Mag. Time & Date
Minimum magnitude displayed is 2.5.

Coastal Water Temperatures

Place Temperature

Stations

Nearby Weather Stations

Station Location Temp. Windchill Dew Point Humidity Wind Precip. Elev Updated Type